sensor_id;sensor_type;location;lat;lon;timestamp;temperature;humidity
14741;DHT22;7462;53.530;9.414;2022-12-20T00:01:08;6.50;99.90
14741;DHT22;7462;53.530;9.414;2022-12-20T00:03:37;6.50;99.90
14741;DHT22;7462;53.530;9.414;2022-12-20T00:06:07;6.50;99.90
14741;DHT22;7462;53.530;9.414;2022-12-20T00:08:37;6.50;99.90
14741;DHT22;7462;53.530;9.414;2022-12-20T00:11:06;6.50;99.90
14741;DHT22;7462;53.530;9.414;2022-12-20T00:13:35;6.60;99.90
14741;DHT22;7462;53.530;9.414;2022-12-20T00:16:05;6.60;99.90
14741;DHT22;7462;53.530;9.414;2022-12-20T00:18:33;6.60;99.90
14741;DHT22;7462;53.530;9.414;2022-12-20T00:21:03;6.60;99.90
14741;DHT22;7462;53.530;9.414;2022-12-20T00:23:33;6.60;99.90
14741;DHT22;7462;53.530;9.414;2022-12-20T00:26:03;6.70;99.90
14741;DHT22;7462;53.530;9.414;2022-12-20T00:28:31;6.70;99.90
14741;DHT22;7462;53.530;9.414;2022-12-20T00:31:00;6.70;99.90
14741;DHT22;7462;53.530;9.414;2022-12-20T00:33:28;6.70;99.90
14741;DHT22;7462;53.530;9.414;2022-12-20T00:35:57;6.70;99.90
14741;DHT22;7462;53.530;9.414;2022-12-20T00:38:26;6.70;99.90
14741;DHT22;7462;53.530;9.414;2022-12-20T00:41:03;6.70;99.90
14741;DHT22;7462;53.530;9.414;2022-12-20T00:43:32;6.80;99.90
14741;DHT22;7462;53.530;9.414;2022-12-20T00:46:00;6.70;99.90
14741;DHT22;7462;53.530;9.414;2022-12-20T00:48:29;6.70;99.90
14741;DHT22;7462;53.530;9.414;2022-12-20T00:50:59;6.70;99.90
14741;DHT22;7462;53.530;9.414;2022-12-20T00:53:28;6.70;99.90
14741;DHT22;7462;53.530;9.414;2022-12-20T00:55:57;6.70;99.90
14741;DHT22;7462;53.530;9.414;2022-12-20T00:58:27;6.70;99.90
14741;DHT22;7462;53.530;9.414;2022-12-20T01:00:56;6.70;99.90
14741;DHT22;7462;53.530;9.414;2022-12-20T01:03:25;6.80;99.90
14741;DHT22;7462;53.530;9.414;2022-12-20T01:05:55;6.80;99.90
14741;DHT22;7462;53.530;9.414;2022-12-20T01:08:24;6.80;99.90
14741;DHT22;7462;53.530;9.414;2022-12-20T01:10:59;6.90;99.90
14741;DHT22;7462;53.530;9.414;2022-12-20T01:13:30;6.90;99.90
14741;DHT22;7462;53.530;9.414;2022-12-20T01:16:03;6.90;99.90
14741;DHT22;7462;53.530;9.414;2022-12-20T01:18:31;6.90;99.90
14741;DHT22;7462;53.530;9.414;2022-12-20T01:21:01;7.00;99.90
14741;DHT22;7462;53.530;9.414;2022-12-20T01:23:29;7.00;99.90
14741;DHT22;7462;53.530;9.414;2022-12-20T01:25:58;7.10;99.90
14741;DHT22;7462;53.530;9.414;2022-12-20T01:28:27;7.10;99.90
14741;DHT22;7462;53.530;9.414;2022-12-20T01:30:57;7.10;99.90
14741;DHT22;7462;53.530;9.414;2022-12-20T01:33:25;7.10;99.90
14741;DHT22;7462;53.530;9.414;2022-12-20T01:35:55;7.10;99.90
14741;DHT22;7462;53.530;9.414;2022-12-20T01:38:23;7.10;99.90
14741;DHT22;7462;53.530;9.414;2022-12-20T01:40:52;7.20;99.90
14741;DHT22;7462;53.530;9.414;2022-12-20T01:43:20;7.20;99.90
14741;DHT22;7462;53.530;9.414;2022-12-20T01:45:49;7.20;99.90
14741;DHT22;7462;53.530;9.414;2022-12-20T01:48:22;7.20;99.90
14741;DHT22;7462;53.530;9.414;2022-12-20T01:50:52;7.30;99.90
14741;DHT22;7462;53.530;9.414;2022-12-20T01:53:22;7.30;99.90
14741;DHT22;7462;53.530;9.414;2022-12-20T01:55:50;7.30;99.90
14741;DHT22;7462;53.530;9.414;2022-12-20T01:58:19;7.30;99.90
14741;DHT22;7462;53.530;9.414;2022-12-20T02:00:48;7.30;99.90
14741;DHT22;7462;53.530;9.414;2022-12-20T02:03:17;7.30;99.90
14741;DHT22;7462;53.530;9.414;2022-12-20T02:05:46;7.30;99.90
14741;DHT22;7462;53.530;9.414;2022-12-20T02:08:17;7.30;99.90
14741;DHT22;7462;53.530;9.414;2022-12-20T02:10:59;7.30;99.90
14741;DHT22;7462;53.530;9.414;2022-12-20T02:13:39;7.40;99.90
14741;DHT22;7462;53.530;9.414;2022-12-20T02:16:15;7.40;99.90
14741;DHT22;7462;53.530;9.414;2022-12-20T02:18:53;7.40;99.90
14741;DHT22;7462;53.530;9.414;2022-12-20T02:21:29;7.40;99.90
14741;DHT22;7462;53.530;9.414;2022-12-20T02:24:36;7.40;99.90
14741;DHT22;7462;53.530;9.414;2022-12-20T02:27:45;7.50;99.90
14741;DHT22;7462;53.530;9.414;2022-12-20T02:30:19;7.50;99.90
14741;DHT22;7462;53.530;9.414;2022-12-20T02:32:52;7.50;99.90
14741;DHT22;7462;53.530;9.414;2022-12-20T02:35:24;7.50;99.90
14741;DHT22;7462;53.530;9.414;2022-12-20T02:37:55;7.50;99.90
14741;DHT22;7462;53.530;9.414;2022-12-20T02:40:26;7.50;99.90
14741;DHT22;7462;53.530;9.414;2022-12-20T02:42:57;7.50;99.90
14741;DHT22;7462;53.530;9.414;2022-12-20T02:45:31;7.60;99.90
14741;DHT22;7462;53.530;9.414;2022-12-20T02:48:03;7.50;99.90
14741;DHT22;7462;53.530;9.414;2022-12-20T02:50:36;7.60;99.90
14741;DHT22;7462;53.530;9.414;2022-12-20T02:53:06;7.60;99.90
14741;DHT22;7462;53.530;9.414;2022-12-20T02:55:41;7.60;99.90
14741;DHT22;7462;53.530;9.414;2022-12-20T02:58:20;7.60;99.90
14741;DHT22;7462;53.530;9.414;2022-12-20T03:00:53;7.60;99.90
14741;DHT22;7462;53.530;9.414;2022-12-20T03:03:23;7.60;99.90
14741;DHT22;7462;53.530;9.414;2022-12-20T03:05:54;7.60;99.90
14741;DHT22;7462;53.530;9.414;2022-12-20T03:08:23;7.60;99.90
14741;DHT22;7462;53.530;9.414;2022-12-20T03:10:52;7.60;99.90
14741;DHT22;7462;53.530;9.414;2022-12-20T03:13:22;7.70;99.90
14741;DHT22;7462;53.530;9.414;2022-12-20T03:15:57;7.70;99.90
14741;DHT22;7462;53.530;9.414;2022-12-20T03:18:26;7.70;99.90
14741;DHT22;7462;53.530;9.414;2022-12-20T03:20:54;7.70;99.90
14741;DHT22;7462;53.530;9.414;2022-12-20T03:23:22;7.70;99.90
14741;DHT22;7462;53.530;9.414;2022-12-20T03:25:50;7.70;99.90
14741;DHT22;7462;53.530;9.414;2022-12-20T03:28:27;7.80;99.90
14741;DHT22;7462;53.530;9.414;2022-12-20T03:30:57;7.80;99.90
14741;DHT22;7462;53.530;9.414;2022-12-20T03:33:26;7.80;99.90
14741;DHT22;7462;53.530;9.414;2022-12-20T03:35:57;7.80;99.90
14741;DHT22;7462;53.530;9.414;2022-12-20T03:38:25;7.80;99.90
14741;DHT22;7462;53.530;9.414;2022-12-20T03:40:53;7.90;99.90
14741;DHT22;7462;53.530;9.414;2022-12-20T03:43:21;7.90;99.90
14741;DHT22;7462;53.530;9.414;2022-12-20T03:45:49;7.90;99.90
14741;DHT22;7462;53.530;9.414;2022-12-20T03:48:20;7.90;99.90
14741;DHT22;7462;53.530;9.414;2022-12-20T03:50:48;7.90;99.90
14741;DHT22;7462;53.530;9.414;2022-12-20T03:53:16;7.90;99.90
14741;DHT22;7462;53.530;9.414;2022-12-20T03:55:44;7.90;99.90
14741;DHT22;7462;53.530;9.414;2022-12-20T03:58:13;7.90;99.90
14741;DHT22;7462;53.530;9.414;2022-12-20T04:00:41;7.90;99.90
14741;DHT22;7462;53.530;9.414;2022-12-20T04:03:32;7.90;99.90
14741;DHT22;7462;53.530;9.414;2022-12-20T04:06:00;7.90;99.90
14741;DHT22;7462;53.530;9.414;2022-12-20T04:08:28;7.90;99.90
14741;DHT22;7462;53.530;9.414;2022-12-20T04:10:57;8.00;99.90
14741;DHT22;7462;53.530;9.414;2022-12-20T04:13:51;8.00;99.90
14741;DHT22;7462;53.530;9.414;2022-12-20T04:16:21;8.00;99.90
14741;DHT22;7462;53.530;9.414;2022-12-20T04:18:52;8.00;99.90
14741;DHT22;7462;53.530;9.414;2022-12-20T04:21:21;8.00;99.90
14741;DHT22;7462;53.530;9.414;2022-12-20T04:23:51;8.00;99.90
14741;DHT22;7462;53.530;9.414;2022-12-20T04:26:20;8.00;99.90
14741;DHT22;7462;53.530;9.414;2022-12-20T04:28:49;8.00;99.90
14741;DHT22;7462;53.530;9.414;2022-12-20T04:31:17;7.90;99.90
14741;DHT22;7462;53.530;9.414;2022-12-20T04:33:52;7.90;99.90
14741;DHT22;7462;53.530;9.414;2022-12-20T04:36:21;7.90;99.90
14741;DHT22;7462;53.530;9.414;2022-12-20T04:38:51;7.90;99.90
14741;DHT22;7462;53.530;9.414;2022-12-20T04:41:19;7.90;99.90
14741;DHT22;7462;53.530;9.414;2022-12-20T04:43:57;7.90;99.90
14741;DHT22;7462;53.530;9.414;2022-12-20T04:46:33;7.90;99.90
14741;DHT22;7462;53.530;9.414;2022-12-20T04:49:04;7.90;99.90
14741;DHT22;7462;53.530;9.414;2022-12-20T04:51:35;7.90;99.90
14741;DHT22;7462;53.530;9.414;2022-12-20T04:54:04;7.90;99.90
14741;DHT22;7462;53.530;9.414;2022-12-20T04:56:40;7.90;99.90
14741;DHT22;7462;53.530;9.414;2022-12-20T04:59:12;7.90;99.90
14741;DHT22;7462;53.530;9.414;2022-12-20T05:01:43;7.90;99.90
14741;DHT22;7462;53.530;9.414;2022-12-20T05:04:18;7.80;99.90
14741;DHT22;7462;53.530;9.414;2022-12-20T05:06:46;7.90;99.90
14741;DHT22;7462;53.530;9.414;2022-12-20T05:09:14;7.90;99.90
14741;DHT22;7462;53.530;9.414;2022-12-20T05:11:42;7.90;99.90
14741;DHT22;7462;53.530;9.414;2022-12-20T05:14:11;7.80;99.90
14741;DHT22;7462;53.530;9.414;2022-12-20T05:16:39;7.90;99.90
14741;DHT22;7462;53.530;9.414;2022-12-20T05:19:07;7.90;99.90
14741;DHT22;7462;53.530;9.414;2022-12-20T05:21:40;7.90;99.90
14741;DHT22;7462;53.530;9.414;2022-12-20T05:24:25;7.80;99.90
14741;DHT22;7462;53.530;9.414;2022-12-20T05:27:23;7.90;99.90
14741;DHT22;7462;53.530;9.414;2022-12-20T05:29:51;7.80;99.90
14741;DHT22;7462;53.530;9.414;2022-12-20T05:32:20;7.90;99.90
14741;DHT22;7462;53.530;9.414;2022-12-20T05:34:48;7.80;99.90
14741;DHT22;7462;53.530;9.414;2022-12-20T05:37:19;7.90;99.90
14741;DHT22;7462;53.530;9.414;2022-12-20T05:39:48;7.90;99.90
14741;DHT22;7462;53.530;9.414;2022-12-20T05:42:20;7.90;99.90
14741;DHT22;7462;53.530;9.414;2022-12-20T05:44:50;7.90;99.90
14741;DHT22;7462;53.530;9.414;2022-12-20T05:47:20;7.90;99.90
14741;DHT22;7462;53.530;9.414;2022-12-20T05:49:57;7.90;99.90
14741;DHT22;7462;53.530;9.414;2022-12-20T05:52:26;7.90;99.90
14741;DHT22;7462;53.530;9.414;2022-12-20T05:54:55;7.90;99.90
14741;DHT22;7462;53.530;9.414;2022-12-20T05:57:24;7.90;99.90
14741;DHT22;7462;53.530;9.414;2022-12-20T05:59:52;7.90;99.90
14741;DHT22;7462;53.530;9.414;2022-12-20T06:02:23;7.90;99.90
14741;DHT22;7462;53.530;9.414;2022-12-20T06:04:59;7.90;99.90
14741;DHT22;7462;53.530;9.414;2022-12-20T06:07:30;8.00;99.90
14741;DHT22;7462;53.530;9.414;2022-12-20T06:09:59;8.00;99.90
14741;DHT22;7462;53.530;9.414;2022-12-20T06:12:45;8.00;99.90
14741;DHT22;7462;53.530;9.414;2022-12-20T06:15:15;8.00;99.90
14741;DHT22;7462;53.530;9.414;2022-12-20T06:17:43;8.10;99.90
14741;DHT22;7462;53.530;9.414;2022-12-20T06:20:12;8.10;99.90
14741;DHT22;7462;53.530;9.414;2022-12-20T06:22:46;8.10;99.90
14741;DHT22;7462;53.530;9.414;2022-12-20T06:25:18;8.10;99.90
14741;DHT22;7462;53.530;9.414;2022-12-20T06:27:46;8.10;99.90
14741;DHT22;7462;53.530;9.414;2022-12-20T06:30:16;8.20;99.90
14741;DHT22;7462;53.530;9.414;2022-12-20T06:33:04;8.20;99.90
14741;DHT22;7462;53.530;9.414;2022-12-20T06:35:32;8.20;99.90
14741;DHT22;7462;53.530;9.414;2022-12-20T06:38:02;8.20;99.90
14741;DHT22;7462;53.530;9.414;2022-12-20T06:40:33;8.20;99.90
14741;DHT22;7462;53.530;9.414;2022-12-20T06:43:02;8.30;99.90
14741;DHT22;7462;53.530;9.414;2022-12-20T06:45:30;8.30;99.90
14741;DHT22;7462;53.530;9.414;2022-12-20T06:48:07;8.30;99.90
14741;DHT22;7462;53.530;9.414;2022-12-20T06:50:36;8.30;99.90
14741;DHT22;7462;53.530;9.414;2022-12-20T06:53:07;8.40;99.90
14741;DHT22;7462;53.530;9.414;2022-12-20T06:55:35;8.40;99.90
14741;DHT22;7462;53.530;9.414;2022-12-20T06:58:04;8.40;99.90
14741;DHT22;7462;53.530;9.414;2022-12-20T07:00:32;8.40;99.90
14741;DHT22;7462;53.530;9.414;2022-12-20T07:03:00;8.40;99.90
14741;DHT22;7462;53.530;9.414;2022-12-20T07:05:29;8.40;99.90
14741;DHT22;7462;53.530;9.414;2022-12-20T07:07:57;8.30;99.90
14741;DHT22;7462;53.530;9.414;2022-12-20T07:10:27;8.30;99.90
14741;DHT22;7462;53.530;9.414;2022-12-20T07:12:55;8.30;99.90
14741;DHT22;7462;53.530;9.414;2022-12-20T07:15:23;8.30;99.90
14741;DHT22;7462;53.530;9.414;2022-12-20T07:17:51;8.30;99.90
14741;DHT22;7462;53.530;9.414;2022-12-20T07:20:19;8.30;99.90
14741;DHT22;7462;53.530;9.414;2022-12-20T07:22:48;8.30;99.90
14741;DHT22;7462;53.530;9.414;2022-12-20T07:25:16;8.30;99.90
14741;DHT22;7462;53.530;9.414;2022-12-20T07:27:47;8.30;99.90
14741;DHT22;7462;53.530;9.414;2022-12-20T07:30:17;8.30;99.90
14741;DHT22;7462;53.530;9.414;2022-12-20T07:32:46;8.30;99.90
14741;DHT22;7462;53.530;9.414;2022-12-20T07:35:14;8.30;99.90
14741;DHT22;7462;53.530;9.414;2022-12-20T07:37:42;8.30;99.90
14741;DHT22;7462;53.530;9.414;2022-12-20T07:40:11;8.30;99.90
14741;DHT22;7462;53.530;9.414;2022-12-20T07:42:40;8.30;99.90
14741;DHT22;7462;53.530;9.414;2022-12-20T07:45:16;8.30;99.90
14741;DHT22;7462;53.530;9.414;2022-12-20T07:47:44;8.30;99.90
14741;DHT22;7462;53.530;9.414;2022-12-20T07:50:12;8.40;99.90
14741;DHT22;7462;53.530;9.414;2022-12-20T07:52:42;8.40;99.90
14741;DHT22;7462;53.530;9.414;2022-12-20T07:55:12;8.40;99.90
14741;DHT22;7462;53.530;9.414;2022-12-20T07:57:43;8.40;99.90
14741;DHT22;7462;53.530;9.414;2022-12-20T08:00:13;8.40;99.90
14741;DHT22;7462;53.530;9.414;2022-12-20T08:02:47;8.40;99.90
14741;DHT22;7462;53.530;9.414;2022-12-20T08:05:16;8.40;99.90
14741;DHT22;7462;53.530;9.414;2022-12-20T08:07:45;8.50;99.90
14741;DHT22;7462;53.530;9.414;2022-12-20T08:10:19;8.40;99.90
14741;DHT22;7462;53.530;9.414;2022-12-20T08:12:47;8.50;99.90
14741;DHT22;7462;53.530;9.414;2022-12-20T08:15:16;8.50;99.90
14741;DHT22;7462;53.530;9.414;2022-12-20T08:17:46;8.50;99.90
14741;DHT22;7462;53.530;9.414;2022-12-20T08:20:14;8.60;99.90
14741;DHT22;7462;53.530;9.414;2022-12-20T08:22:42;8.60;99.90
14741;DHT22;7462;53.530;9.414;2022-12-20T08:25:11;8.60;99.90
14741;DHT22;7462;53.530;9.414;2022-12-20T08:27:39;8.60;99.90
14741;DHT22;7462;53.530;9.414;2022-12-20T08:30:08;8.60;99.90
14741;DHT22;7462;53.530;9.414;2022-12-20T08:32:36;8.60;99.90
14741;DHT22;7462;53.530;9.414;2022-12-20T08:35:06;8.70;99.90
14741;DHT22;7462;53.530;9.414;2022-12-20T08:37:35;8.70;99.90
14741;DHT22;7462;53.530;9.414;2022-12-20T08:40:04;8.70;99.90
14741;DHT22;7462;53.530;9.414;2022-12-20T08:42:33;8.80;99.90
14741;DHT22;7462;53.530;9.414;2022-12-20T08:45:03;8.80;99.90
14741;DHT22;7462;53.530;9.414;2022-12-20T08:47:31;8.80;99.90
14741;DHT22;7462;53.530;9.414;2022-12-20T08:49:59;8.80;99.90
14741;DHT22;7462;53.530;9.414;2022-12-20T08:52:29;8.90;99.90
14741;DHT22;7462;53.530;9.414;2022-12-20T08:54:57;8.90;99.90
14741;DHT22;7462;53.530;9.414;2022-12-20T08:57:28;8.90;99.90
14741;DHT22;7462;53.530;9.414;2022-12-20T08:59:56;9.00;99.90
14741;DHT22;7462;53.530;9.414;2022-12-20T09:02:24;9.00;99.90
14741;DHT22;7462;53.530;9.414;2022-12-20T09:04:52;9.00;99.90
14741;DHT22;7462;53.530;9.414;2022-12-20T09:07:20;9.00;99.90
14741;DHT22;7462;53.530;9.414;2022-12-20T09:09:49;9.10;99.90
14741;DHT22;7462;53.530;9.414;2022-12-20T09:12:17;9.10;99.90
14741;DHT22;7462;53.530;9.414;2022-12-20T09:14:45;9.20;99.90
14741;DHT22;7462;53.530;9.414;2022-12-20T09:17:13;9.10;99.90
14741;DHT22;7462;53.530;9.414;2022-12-20T09:19:41;9.20;99.90
14741;DHT22;7462;53.530;9.414;2022-12-20T09:22:09;9.20;99.90
14741;DHT22;7462;53.530;9.414;2022-12-20T09:24:37;9.20;99.90
14741;DHT22;7462;53.530;9.414;2022-12-20T09:27:07;9.20;99.90
14741;DHT22;7462;53.530;9.414;2022-12-20T09:29:35;9.20;99.90
14741;DHT22;7462;53.530;9.414;2022-12-20T09:32:03;9.20;99.90
14741;DHT22;7462;53.530;9.414;2022-12-20T09:34:31;9.20;99.90
14741;DHT22;7462;53.530;9.414;2022-12-20T09:36:59;9.20;99.90
14741;DHT22;7462;53.530;9.414;2022-12-20T09:39:27;9.10;99.90
14741;DHT22;7462;53.530;9.414;2022-12-20T09:41:56;9.10;99.90
14741;DHT22;7462;53.530;9.414;2022-12-20T09:44:29;9.10;99.90
14741;DHT22;7462;53.530;9.414;2022-12-20T09:47:02;9.10;99.90
14741;DHT22;7462;53.530;9.414;2022-12-20T09:49:40;9.10;99.90
14741;DHT22;7462;53.530;9.414;2022-12-20T09:52:30;9.20;99.90
14741;DHT22;7462;53.530;9.414;2022-12-20T09:55:08;9.20;99.90
14741;DHT22;7462;53.530;9.414;2022-12-20T09:57:51;9.20;99.90
14741;DHT22;7462;53.530;9.414;2022-12-20T10:00:23;9.20;99.90
14741;DHT22;7462;53.530;9.414;2022-12-20T10:02:51;9.20;99.90
14741;DHT22;7462;53.530;9.414;2022-12-20T10:05:35;9.20;99.90
14741;DHT22;7462;53.530;9.414;2022-12-20T10:08:13;9.30;99.90
14741;DHT22;7462;53.530;9.414;2022-12-20T10:10:55;9.30;99.90
14741;DHT22;7462;53.530;9.414;2022-12-20T10:13:35;9.30;99.90
14741;DHT22;7462;53.530;9.414;2022-12-20T10:16:18;9.30;99.90
14741;DHT22;7462;53.530;9.414;2022-12-20T10:18:58;9.40;99.90
14741;DHT22;7462;53.530;9.414;2022-12-20T10:21:36;9.40;99.90
14741;DHT22;7462;53.530;9.414;2022-12-20T10:24:11;9.40;99.90
14741;DHT22;7462;53.530;9.414;2022-12-20T10:26:41;9.50;99.90
14741;DHT22;7462;53.530;9.414;2022-12-20T10:29:09;9.60;99.90
14741;DHT22;7462;53.530;9.414;2022-12-20T10:31:39;9.70;99.90
14741;DHT22;7462;53.530;9.414;2022-12-20T10:34:07;9.80;99.90
14741;DHT22;7462;53.530;9.414;2022-12-20T10:36:36;9.90;99.90
14741;DHT22;7462;53.530;9.414;2022-12-20T10:39:06;10.00;99.90
14741;DHT22;7462;53.530;9.414;2022-12-20T10:41:47;10.00;99.90
14741;DHT22;7462;53.530;9.414;2022-12-20T10:44:18;10.00;99.90
14741;DHT22;7462;53.530;9.414;2022-12-20T10:46:51;10.00;99.90
14741;DHT22;7462;53.530;9.414;2022-12-20T10:49:27;10.10;99.90
14741;DHT22;7462;53.530;9.414;2022-12-20T10:51:57;10.10;99.90
14741;DHT22;7462;53.530;9.414;2022-12-20T10:54:30;10.00;99.90
14741;DHT22;7462;53.530;9.414;2022-12-20T10:56:59;10.00;99.90
14741;DHT22;7462;53.530;9.414;2022-12-20T10:59:32;10.10;99.90
14741;DHT22;7462;53.530;9.414;2022-12-20T11:02:25;10.10;99.90
14741;DHT22;7462;53.530;9.414;2022-12-20T11:05:20;10.20;99.90
14741;DHT22;7462;53.530;9.414;2022-12-20T11:07:53;10.10;99.90
14741;DHT22;7462;53.530;9.414;2022-12-20T11:10:42;10.20;99.90
14741;DHT22;7462;53.530;9.414;2022-12-20T11:13:20;10.10;99.90
14741;DHT22;7462;53.530;9.414;2022-12-20T11:15:50;10.10;99.90
14741;DHT22;7462;53.530;9.414;2022-12-20T11:18:32;10.10;99.90
14741;DHT22;7462;53.530;9.414;2022-12-20T11:21:14;10.10;99.90
14741;DHT22;7462;53.530;9.414;2022-12-20T11:24:00;10.20;99.90
14741;DHT22;7462;53.530;9.414;2022-12-20T11:26:39;10.20;99.90
14741;DHT22;7462;53.530;9.414;2022-12-20T11:29:20;10.20;99.90
14741;DHT22;7462;53.530;9.414;2022-12-20T11:31:59;10.20;99.90
14741;DHT22;7462;53.530;9.414;2022-12-20T11:34:38;10.30;99.90
14741;DHT22;7462;53.530;9.414;2022-12-20T11:37:18;10.30;99.90
14741;DHT22;7462;53.530;9.414;2022-12-20T11:39:57;10.30;99.90
14741;DHT22;7462;53.530;9.414;2022-12-20T11:42:33;10.40;99.90
14741;DHT22;7462;53.530;9.414;2022-12-20T11:45:10;10.40;99.90
14741;DHT22;7462;53.530;9.414;2022-12-20T11:47:58;10.40;99.90
14741;DHT22;7462;53.530;9.414;2022-12-20T11:50:47;10.40;99.90
14741;DHT22;7462;53.530;9.414;2022-12-20T11:53:21;10.30;99.90
14741;DHT22;7462;53.530;9.414;2022-12-20T11:55:52;10.30;99.90
14741;DHT22;7462;53.530;9.414;2022-12-20T11:58:24;10.20;99.90
14741;DHT22;7462;53.530;9.414;2022-12-20T12:00:56;10.10;99.90
14741;DHT22;7462;53.530;9.414;2022-12-20T12:03:32;10.10;99.90
14741;DHT22;7462;53.530;9.414;2022-12-20T12:06:05;10.00;99.90
14741;DHT22;7462;53.530;9.414;2022-12-20T12:08:41;9.90;99.90
14741;DHT22;7462;53.530;9.414;2022-12-20T12:11:14;9.80;99.90
14741;DHT22;7462;53.530;9.414;2022-12-20T12:14:05;9.80;99.90
14741;DHT22;7462;53.530;9.414;2022-12-20T12:16:37;9.80;99.90
14741;DHT22;7462;53.530;9.414;2022-12-20T12:19:09;9.80;99.90
14741;DHT22;7462;53.530;9.414;2022-12-20T12:21:43;9.70;99.90
14741;DHT22;7462;53.530;9.414;2022-12-20T12:24:20;9.70;99.90
14741;DHT22;7462;53.530;9.414;2022-12-20T12:26:51;9.70;99.90
14741;DHT22;7462;53.530;9.414;2022-12-20T12:29:20;9.70;99.90
14741;DHT22;7462;53.530;9.414;2022-12-20T12:31:51;9.60;99.90
14741;DHT22;7462;53.530;9.414;2022-12-20T12:34:31;9.60;99.90
14741;DHT22;7462;53.530;9.414;2022-12-20T12:37:24;9.60;99.90
14741;DHT22;7462;53.530;9.414;2022-12-20T12:43:18;9.60;99.90
14741;DHT22;7462;53.530;9.414;2022-12-20T12:45:51;9.60;99.90
14741;DHT22;7462;53.530;9.414;2022-12-20T12:48:26;9.60;99.90
14741;DHT22;7462;53.530;9.414;2022-12-20T12:50:58;9.60;99.90
14741;DHT22;7462;53.530;9.414;2022-12-20T12:53:34;9.50;99.90
14741;DHT22;7462;53.530;9.414;2022-12-20T12:56:28;9.60;99.90
14741;DHT22;7462;53.530;9.414;2022-12-20T12:59:39;9.50;99.90
14741;DHT22;7462;53.530;9.414;2022-12-20T13:02:50;9.50;99.90
14741;DHT22;7462;53.530;9.414;2022-12-20T13:05:34;9.50;99.90
14741;DHT22;7462;53.530;9.414;2022-12-20T13:08:03;9.50;99.90
14741;DHT22;7462;53.530;9.414;2022-12-20T13:11:11;9.40;99.90
14741;DHT22;7462;53.530;9.414;2022-12-20T13:13:39;9.40;99.90
14741;DHT22;7462;53.530;9.414;2022-12-20T13:16:18;9.40;99.90
14741;DHT22;7462;53.530;9.414;2022-12-20T13:19:14;9.40;99.90
14741;DHT22;7462;53.530;9.414;2022-12-20T13:21:44;9.40;99.90
14741;DHT22;7462;53.530;9.414;2022-12-20T13:24:39;9.40;99.90
14741;DHT22;7462;53.530;9.414;2022-12-20T13:27:29;9.40;99.90
14741;DHT22;7462;53.530;9.414;2022-12-20T13:30:27;9.30;99.90
14741;DHT22;7462;53.530;9.414;2022-12-20T13:35:59;9.30;99.90
14741;DHT22;7462;53.530;9.414;2022-12-20T13:39:02;9.30;99.90
14741;DHT22;7462;53.530;9.414;2022-12-20T13:41:39;9.30;99.90
14741;DHT22;7462;53.530;9.414;2022-12-20T13:44:32;9.30;99.90
14741;DHT22;7462;53.530;9.414;2022-12-20T13:47:06;9.30;99.90
14741;DHT22;7462;53.530;9.414;2022-12-20T13:49:41;9.30;99.90
14741;DHT22;7462;53.530;9.414;2022-12-20T13:52:21;9.30;99.90
14741;DHT22;7462;53.530;9.414;2022-12-20T13:54:53;9.30;99.90
14741;DHT22;7462;53.530;9.414;2022-12-20T13:57:27;9.30;99.90
14741;DHT22;7462;53.530;9.414;2022-12-20T14:00:01;9.30;99.90
14741;DHT22;7462;53.530;9.414;2022-12-20T14:02:35;9.30;99.90
14741;DHT22;7462;53.530;9.414;2022-12-20T14:05:13;9.30;99.90
14741;DHT22;7462;53.530;9.414;2022-12-20T14:07:44;9.30;99.90
14741;DHT22;7462;53.530;9.414;2022-12-20T14:10:17;9.20;99.90
14741;DHT22;7462;53.530;9.414;2022-12-20T14:12:46;9.20;99.90
14741;DHT22;7462;53.530;9.414;2022-12-20T14:15:23;9.20;99.90
14741;DHT22;7462;53.530;9.414;2022-12-20T14:17:52;9.20;99.90
14741;DHT22;7462;53.530;9.414;2022-12-20T14:20:23;9.20;99.90
14741;DHT22;7462;53.530;9.414;2022-12-20T14:22:55;9.20;99.90
14741;DHT22;7462;53.530;9.414;2022-12-20T14:25:36;9.20;99.90
14741;DHT22;7462;53.530;9.414;2022-12-20T14:28:07;9.20;99.90
14741;DHT22;7462;53.530;9.414;2022-12-20T14:30:54;9.20;99.90
14741;DHT22;7462;53.530;9.414;2022-12-20T14:33:28;9.20;99.90
14741;DHT22;7462;53.530;9.414;2022-12-20T14:36:01;9.30;99.90
14741;DHT22;7462;53.530;9.414;2022-12-20T14:38:33;9.20;99.90
14741;DHT22;7462;53.530;9.414;2022-12-20T14:41:02;9.20;99.90
14741;DHT22;7462;53.530;9.414;2022-12-20T14:43:32;9.20;99.90
14741;DHT22;7462;53.530;9.414;2022-12-20T14:46:15;9.20;99.90
14741;DHT22;7462;53.530;9.414;2022-12-20T14:48:45;9.20;99.90
14741;DHT22;7462;53.530;9.414;2022-12-20T14:51:19;9.20;99.90
14741;DHT22;7462;53.530;9.414;2022-12-20T14:53:49;9.20;99.90
14741;DHT22;7462;53.530;9.414;2022-12-20T14:56:20;9.20;99.90
14741;DHT22;7462;53.530;9.414;2022-12-20T14:59:11;9.30;99.90
14741;DHT22;7462;53.530;9.414;2022-12-20T15:01:42;9.20;99.90
14741;DHT22;7462;53.530;9.414;2022-12-20T15:04:22;9.20;99.90
14741;DHT22;7462;53.530;9.414;2022-12-20T15:06:51;9.20;99.90
14741;DHT22;7462;53.530;9.414;2022-12-20T15:09:20;9.20;99.90
14741;DHT22;7462;53.530;9.414;2022-12-20T15:11:48;9.20;99.90
14741;DHT22;7462;53.530;9.414;2022-12-20T15:14:26;9.20;99.90
14741;DHT22;7462;53.530;9.414;2022-12-20T15:16:56;9.20;99.90
14741;DHT22;7462;53.530;9.414;2022-12-20T15:19:25;9.30;99.90
14741;DHT22;7462;53.530;9.414;2022-12-20T15:21:53;9.20;99.90
14741;DHT22;7462;53.530;9.414;2022-12-20T15:24:24;9.20;99.90
14741;DHT22;7462;53.530;9.414;2022-12-20T15:26:53;9.20;99.90
14741;DHT22;7462;53.530;9.414;2022-12-20T15:29:23;9.20;99.90
14741;DHT22;7462;53.530;9.414;2022-12-20T15:31:56;9.20;99.90
14741;DHT22;7462;53.530;9.414;2022-12-20T15:34:31;9.30;99.90
14741;DHT22;7462;53.530;9.414;2022-12-20T15:37:00;9.30;99.90
14741;DHT22;7462;53.530;9.414;2022-12-20T15:39:28;9.30;99.90
14741;DHT22;7462;53.530;9.414;2022-12-20T15:41:59;9.20;99.90
14741;DHT22;7462;53.530;9.414;2022-12-20T15:44:29;9.30;99.90
14741;DHT22;7462;53.530;9.414;2022-12-20T15:46:58;9.30;99.90
14741;DHT22;7462;53.530;9.414;2022-12-20T15:49:30;9.20;99.90
14741;DHT22;7462;53.530;9.414;2022-12-20T15:51:58;9.30;99.90
14741;DHT22;7462;53.530;9.414;2022-12-20T15:54:29;9.30;99.90
14741;DHT22;7462;53.530;9.414;2022-12-20T15:56:58;9.30;99.90
14741;DHT22;7462;53.530;9.414;2022-12-20T15:59:28;9.30;99.90
14741;DHT22;7462;53.530;9.414;2022-12-20T16:02:20;9.30;99.90
14741;DHT22;7462;53.530;9.414;2022-12-20T16:04:50;9.30;99.90
14741;DHT22;7462;53.530;9.414;2022-12-20T16:07:18;9.30;99.90
14741;DHT22;7462;53.530;9.414;2022-12-20T16:09:46;9.30;99.90
14741;DHT22;7462;53.530;9.414;2022-12-20T16:12:16;9.30;99.90
14741;DHT22;7462;53.530;9.414;2022-12-20T16:14:44;9.30;99.90
14741;DHT22;7462;53.530;9.414;2022-12-20T16:17:13;9.30;99.90
14741;DHT22;7462;53.530;9.414;2022-12-20T16:19:42;9.30;99.90
14741;DHT22;7462;53.530;9.414;2022-12-20T16:22:14;9.30;99.90
14741;DHT22;7462;53.530;9.414;2022-12-20T16:24:42;9.30;99.90
14741;DHT22;7462;53.530;9.414;2022-12-20T16:27:10;9.30;99.90
14741;DHT22;7462;53.530;9.414;2022-12-20T16:29:38;9.20;99.90
14741;DHT22;7462;53.530;9.414;2022-12-20T16:32:12;9.30;99.90
14741;DHT22;7462;53.530;9.414;2022-12-20T16:34:41;9.20;99.90
14741;DHT22;7462;53.530;9.414;2022-12-20T16:37:09;9.20;99.90
14741;DHT22;7462;53.530;9.414;2022-12-20T16:39:39;9.20;99.90
14741;DHT22;7462;53.530;9.414;2022-12-20T16:42:11;9.20;99.90